TAF LDZA 051725Z 0518/0618 VRB02KT CAVOK
                 TX31/0614Z TN15/0603Z
           TEMPO 0610/0618 06008KT=
TAF LDZA 051125Z 0512/0612 VRB02KT CAVOK
                 TX30/0514Z TN15/0603Z
           TEMPO 0512/0516 04008KT=
TAF LDZA 050525Z 0506/0606 VRB02KT CAVOK
                 TX30/0513Z TN14/0603Z=
TAF LDZA 042325Z 0500/0600 VRB02KT CAVOK
                 TX30/0514Z TN13/0503Z
           TEMPO 0509/0516 04007KT=
TAF LDZA 041725Z 0418/0518 VRB02KT CAVOK
                 TX29/0514Z TN14/0503Z
           BECMG 0508/0510 04007KT=
TAF LDZA 041125Z 0412/0512 04008KT CAVOK
                 TX27/0511Z TN14/0503Z
           BECMG 0416/0418 VRB02KT=